Pagina principală
METAR-TAF:

METAR-TAF

Aeroporturi :

Juliaca, Peru

Latitudine: 15-29S, longitudine: 070-09W, elevație: 3826 m

Observații meteo curente

Raportul a fost făcut în urmă cu 9 ore și 28 de minute, la 00:00 UTC
Vânt 7 kt de la Sud/Sud-vest
Temperatură 12°C
Umiditate 24%
Presiune 1035 hPa
Vizibilitate de 10 km sau mai mult
nu există nori sub 1.500 m și nici cumulonimbus

METAR: SPJL 140000Z 21007KT CAVOK 12/M08 Q1035 RMK PP000

Ora: 04:28 (09:28 UTC)

Prognoză

Raportul a fost făcut în urmă cu 16 ore și 28 de minute, la 17:00 UTC
Prognoză valabilă de la 13 ora 18 UTC la 14 ora 18 UTC
Vânt 7 kt de la Sud/Sud-vest
Vizibilitate de 10 km sau mai mult
nu există nori sub 1.500 m și nici cumulonimbus
De la 14 ora 0000 UTC
Vânt 2 kt din direcții variabile
Vizibilitate de 10 km sau mai mult
nu există nori sub 1.500 m și nici cumulonimbus

TAF: SPJL 131700Z 1318/1418 20007KT CAVOK TX20/1319Z TNM05/1411Z FM140000 VRB02KT CAVOK

Observații și prognoze meteo pentru peste 4.000 de aeroporturi (rapoarte METAR și TAF).

Stațiile disponibile sunt reprezentate pe hartă prin puncte galbene și roșii.

Țineți indicatorul mouse-ului pe punctul dorit pentru a vedea denumirea stației.

Apoi, faceți clic pentru a vedea observațiile și prognozele meteorologice.

Pentru a schimba harta: Pentru mărire, faceți clic pe butoanele verzi cu cruce neagră; pentru micșorare, pe butonul verde cu o liniuță; pentru hărți învecinate, pe săgețile verzi.


METAR-TAF: